sensor_id;sensor_type;location;lat;lon;timestamp;temperature;humidity
45115;DHT22;30877;43.706;10.780;2022-11-18T00:01:20;13.90;96.70
45115;DHT22;30877;43.706;10.780;2022-11-18T00:03:49;13.90;96.70
45115;DHT22;30877;43.706;10.780;2022-11-18T00:06:19;13.90;96.70
45115;DHT22;30877;43.706;10.780;2022-11-18T00:08:47;13.90;96.70
45115;DHT22;30877;43.706;10.780;2022-11-18T00:11:16;14.00;96.70
45115;DHT22;30877;43.706;10.780;2022-11-18T00:14:05;14.00;96.70
45115;DHT22;30877;43.706;10.780;2022-11-18T00:16:46;14.00;96.70
45115;DHT22;30877;43.706;10.780;2022-11-18T00:19:15;14.00;96.70
45115;DHT22;30877;43.706;10.780;2022-11-18T00:21:43;14.00;96.70
45115;DHT22;30877;43.706;10.780;2022-11-18T00:24:11;14.00;96.70
45115;DHT22;30877;43.706;10.780;2022-11-18T00:26:39;14.10;96.70
45115;DHT22;30877;43.706;10.780;2022-11-18T00:29:10;14.10;96.70
45115;DHT22;30877;43.706;10.780;2022-11-18T00:31:39;14.00;96.70
45115;DHT22;30877;43.706;10.780;2022-11-18T00:34:09;14.10;96.70
45115;DHT22;30877;43.706;10.780;2022-11-18T00:36:37;14.10;96.70
45115;DHT22;30877;43.706;10.780;2022-11-18T00:39:05;14.10;96.70
45115;DHT22;30877;43.706;10.780;2022-11-18T00:41:33;14.10;96.70
45115;DHT22;30877;43.706;10.780;2022-11-18T00:44:21;14.10;96.70
45115;DHT22;30877;43.706;10.780;2022-11-18T00:46:49;14.10;96.70
45115;DHT22;30877;43.706;10.780;2022-11-18T00:49:17;14.10;96.70
45115;DHT22;30877;43.706;10.780;2022-11-18T00:51:46;14.20;96.70
45115;DHT22;30877;43.706;10.780;2022-11-18T00:54:14;14.20;96.70
45115;DHT22;30877;43.706;10.780;2022-11-18T00:56:42;14.20;96.70
45115;DHT22;30877;43.706;10.780;2022-11-18T00:59:10;14.20;96.70
45115;DHT22;30877;43.706;10.780;2022-11-18T01:01:39;14.10;96.70
45115;DHT22;30877;43.706;10.780;2022-11-18T01:04:08;14.10;96.70
45115;DHT22;30877;43.706;10.780;2022-11-18T01:06:36;14.10;96.70
45115;DHT22;30877;43.706;10.780;2022-11-18T01:09:04;14.10;96.70
45115;DHT22;30877;43.706;10.780;2022-11-18T01:11:32;14.10;96.70
45115;DHT22;30877;43.706;10.780;2022-11-18T01:14:32;14.10;96.70
45115;DHT22;30877;43.706;10.780;2022-11-18T01:17:01;14.10;96.70
45115;DHT22;30877;43.706;10.780;2022-11-18T01:19:29;14.10;96.70
45115;DHT22;30877;43.706;10.780;2022-11-18T01:21:57;14.10;96.70
45115;DHT22;30877;43.706;10.780;2022-11-18T01:24:30;14.10;96.70
45115;DHT22;30877;43.706;10.780;2022-11-18T01:26:58;14.10;96.70
45115;DHT22;30877;43.706;10.780;2022-11-18T01:29:26;14.10;96.70
45115;DHT22;30877;43.706;10.780;2022-11-18T01:31:54;14.10;96.70
45115;DHT22;30877;43.706;10.780;2022-11-18T01:34:43;14.20;96.70
45115;DHT22;30877;43.706;10.780;2022-11-18T01:37:11;14.20;96.70
45115;DHT22;30877;43.706;10.780;2022-11-18T01:39:39;14.20;96.70
45115;DHT22;30877;43.706;10.780;2022-11-18T01:42:12;14.20;96.70
45115;DHT22;30877;43.706;10.780;2022-11-18T01:45:09;14.20;96.70
45115;DHT22;30877;43.706;10.780;2022-11-18T01:47:43;14.20;96.70
45115;DHT22;30877;43.706;10.780;2022-11-18T01:50:14;14.20;96.70
45115;DHT22;30877;43.706;10.780;2022-11-18T01:52:42;14.20;96.70
45115;DHT22;30877;43.706;10.780;2022-11-18T01:55:20;14.20;96.70
45115;DHT22;30877;43.706;10.780;2022-11-18T01:57:51;14.20;96.70
45115;DHT22;30877;43.706;10.780;2022-11-18T02:00:22;14.20;96.70
45115;DHT22;30877;43.706;10.780;2022-11-18T02:02:50;14.10;96.70
45115;DHT22;30877;43.706;10.780;2022-11-18T02:05:20;14.10;96.70
45115;DHT22;30877;43.706;10.780;2022-11-18T02:07:49;14.10;96.70
45115;DHT22;30877;43.706;10.780;2022-11-18T02:10:19;14.10;96.70
45115;DHT22;30877;43.706;10.780;2022-11-18T02:12:48;14.10;96.70
45115;DHT22;30877;43.706;10.780;2022-11-18T02:15:17;14.10;96.70
45115;DHT22;30877;43.706;10.780;2022-11-18T02:17:57;14.00;96.70
45115;DHT22;30877;43.706;10.780;2022-11-18T02:20:33;14.00;96.70
45115;DHT22;30877;43.706;10.780;2022-11-18T02:23:35;14.00;96.70
45115;DHT22;30877;43.706;10.780;2022-11-18T02:26:39;14.00;96.70
45115;DHT22;30877;43.706;10.780;2022-11-18T02:29:14;14.00;96.70
45115;DHT22;30877;43.706;10.780;2022-11-18T02:31:49;14.00;96.70
45115;DHT22;30877;43.706;10.780;2022-11-18T02:34:30;14.00;96.70
45115;DHT22;30877;43.706;10.780;2022-11-18T02:37:01;14.00;96.70
45115;DHT22;30877;43.706;10.780;2022-11-18T02:39:34;14.00;96.70
45115;DHT22;30877;43.706;10.780;2022-11-18T02:42:05;14.00;96.70
45115;DHT22;30877;43.706;10.780;2022-11-18T02:44:38;14.00;96.70
45115;DHT22;30877;43.706;10.780;2022-11-18T02:47:10;14.00;96.70
45115;DHT22;30877;43.706;10.780;2022-11-18T02:49:43;13.90;96.70
45115;DHT22;30877;43.706;10.780;2022-11-18T02:52:14;13.90;96.70
45115;DHT22;30877;43.706;10.780;2022-11-18T02:54:44;13.90;96.70
45115;DHT22;30877;43.706;10.780;2022-11-18T02:57:14;13.90;96.70
45115;DHT22;30877;43.706;10.780;2022-11-18T02:59:44;14.00;96.70
45115;DHT22;30877;43.706;10.780;2022-11-18T03:02:15;14.00;96.70
45115;DHT22;30877;43.706;10.780;2022-11-18T03:04:46;14.00;96.70
45115;DHT22;30877;43.706;10.780;2022-11-18T03:07:18;14.00;96.70
45115;DHT22;30877;43.706;10.780;2022-11-18T03:09:50;14.00;96.70
45115;DHT22;30877;43.706;10.780;2022-11-18T03:12:25;14.00;96.70
45115;DHT22;30877;43.706;10.780;2022-11-18T03:15:01;14.00;96.70
45115;DHT22;30877;43.706;10.780;2022-11-18T03:17:37;13.90;96.70
45115;DHT22;30877;43.706;10.780;2022-11-18T03:20:13;14.00;96.70
45115;DHT22;30877;43.706;10.780;2022-11-18T03:22:46;14.20;96.70
45115;DHT22;30877;43.706;10.780;2022-11-18T03:25:20;14.20;96.70
45115;DHT22;30877;43.706;10.780;2022-11-18T03:27:52;14.30;96.70
45115;DHT22;30877;43.706;10.780;2022-11-18T03:30:23;14.40;96.70
45115;DHT22;30877;43.706;10.780;2022-11-18T03:32:55;14.40;96.70
45115;DHT22;30877;43.706;10.780;2022-11-18T03:35:26;14.60;96.70
45115;DHT22;30877;43.706;10.780;2022-11-18T03:38:00;14.60;96.70
45115;DHT22;30877;43.706;10.780;2022-11-18T03:40:31;14.60;96.70
45115;DHT22;30877;43.706;10.780;2022-11-18T03:43:04;14.60;96.70
45115;DHT22;30877;43.706;10.780;2022-11-18T03:45:38;14.60;96.70
45115;DHT22;30877;43.706;10.780;2022-11-18T03:48:11;14.50;96.70
45115;DHT22;30877;43.706;10.780;2022-11-18T03:50:43;14.50;96.70
45115;DHT22;30877;43.706;10.780;2022-11-18T03:53:13;14.50;96.70
45115;DHT22;30877;43.706;10.780;2022-11-18T03:55:45;14.50;96.70
45115;DHT22;30877;43.706;10.780;2022-11-18T03:58:20;14.50;96.70
45115;DHT22;30877;43.706;10.780;2022-11-18T04:00:55;14.40;96.70
45115;DHT22;30877;43.706;10.780;2022-11-18T04:03:25;14.40;96.70
45115;DHT22;30877;43.706;10.780;2022-11-18T04:05:57;14.40;96.70
45115;DHT22;30877;43.706;10.780;2022-11-18T04:08:32;14.40;96.70
45115;DHT22;30877;43.706;10.780;2022-11-18T04:11:10;14.40;96.70
45115;DHT22;30877;43.706;10.780;2022-11-18T04:13:59;14.40;96.70
45115;DHT22;30877;43.706;10.780;2022-11-18T04:16:29;14.30;96.70
45115;DHT22;30877;43.706;10.780;2022-11-18T04:18:56;14.40;96.70
45115;DHT22;30877;43.706;10.780;2022-11-18T04:21:32;14.50;96.70
45115;DHT22;30877;43.706;10.780;2022-11-18T04:23:59;14.50;96.70
45115;DHT22;30877;43.706;10.780;2022-11-18T04:26:27;14.50;96.70
45115;DHT22;30877;43.706;10.780;2022-11-18T04:28:54;14.60;96.70
45115;DHT22;30877;43.706;10.780;2022-11-18T04:31:22;14.60;96.70
45115;DHT22;30877;43.706;10.780;2022-11-18T04:33:51;14.60;96.70
45115;DHT22;30877;43.706;10.780;2022-11-18T04:36:19;14.60;96.70
45115;DHT22;30877;43.706;10.780;2022-11-18T04:38:47;14.70;96.70
45115;DHT22;30877;43.706;10.780;2022-11-18T04:41:15;14.70;96.70
45115;DHT22;30877;43.706;10.780;2022-11-18T04:43:42;14.70;96.70
45115;DHT22;30877;43.706;10.780;2022-11-18T04:46:10;14.70;96.70
45115;DHT22;30877;43.706;10.780;2022-11-18T04:48:38;14.70;96.70
45115;DHT22;30877;43.706;10.780;2022-11-18T04:51:07;14.80;96.70
45115;DHT22;30877;43.706;10.780;2022-11-18T04:53:34;14.80;96.70
45115;DHT22;30877;43.706;10.780;2022-11-18T04:56:06;14.80;96.70
45115;DHT22;30877;43.706;10.780;2022-11-18T04:58:34;14.90;96.70
45115;DHT22;30877;43.706;10.780;2022-11-18T05:01:01;14.90;96.70
45115;DHT22;30877;43.706;10.780;2022-11-18T05:03:29;14.90;96.70
45115;DHT22;30877;43.706;10.780;2022-11-18T05:06:00;14.90;96.70
45115;DHT22;30877;43.706;10.780;2022-11-18T05:08:30;14.90;96.70
45115;DHT22;30877;43.706;10.780;2022-11-18T05:10:58;15.00;96.70
45115;DHT22;30877;43.706;10.780;2022-11-18T05:13:46;15.00;96.70
45115;DHT22;30877;43.706;10.780;2022-11-18T05:16:16;15.00;96.70
45115;DHT22;30877;43.706;10.780;2022-11-18T05:18:45;15.00;96.70
45115;DHT22;30877;43.706;10.780;2022-11-18T05:21:13;15.00;96.70
45115;DHT22;30877;43.706;10.780;2022-11-18T05:23:42;15.00;96.70
45115;DHT22;30877;43.706;10.780;2022-11-18T05:26:11;15.00;96.70
45115;DHT22;30877;43.706;10.780;2022-11-18T05:28:39;15.00;96.70
45115;DHT22;30877;43.706;10.780;2022-11-18T05:31:07;15.10;96.70
45115;DHT22;30877;43.706;10.780;2022-11-18T05:33:36;15.10;96.70
45115;DHT22;30877;43.706;10.780;2022-11-18T05:36:04;15.10;96.70
45115;DHT22;30877;43.706;10.780;2022-11-18T05:38:33;15.10;96.70
45115;DHT22;30877;43.706;10.780;2022-11-18T05:41:03;15.00;96.70
45115;DHT22;30877;43.706;10.780;2022-11-18T05:43:33;15.00;96.70
45115;DHT22;30877;43.706;10.780;2022-11-18T05:46:01;14.80;96.70
45115;DHT22;30877;43.706;10.780;2022-11-18T05:48:30;14.70;96.70
45115;DHT22;30877;43.706;10.780;2022-11-18T05:50:58;14.60;96.70
45115;DHT22;30877;43.706;10.780;2022-11-18T05:53:26;14.50;96.70
45115;DHT22;30877;43.706;10.780;2022-11-18T05:56:02;14.50;96.70
45115;DHT22;30877;43.706;10.780;2022-11-18T05:58:34;14.50;96.70
45115;DHT22;30877;43.706;10.780;2022-11-18T06:01:03;14.40;96.70
45115;DHT22;30877;43.706;10.780;2022-11-18T06:03:36;14.50;96.70
45115;DHT22;30877;43.706;10.780;2022-11-18T06:06:07;14.40;96.70
45115;DHT22;30877;43.706;10.780;2022-11-18T06:08:39;14.40;96.70
45115;DHT22;30877;43.706;10.780;2022-11-18T06:11:11;14.40;96.70
45115;DHT22;30877;43.706;10.780;2022-11-18T06:13:45;14.40;96.70
45115;DHT22;30877;43.706;10.780;2022-11-18T06:16:18;14.30;96.70
45115;DHT22;30877;43.706;10.780;2022-11-18T06:18:47;14.30;96.70
45115;DHT22;30877;43.706;10.780;2022-11-18T06:21:15;14.40;96.70
45115;DHT22;30877;43.706;10.780;2022-11-18T06:23:44;14.40;96.70
45115;DHT22;30877;43.706;10.780;2022-11-18T06:26:13;14.30;96.70
45115;DHT22;30877;43.706;10.780;2022-11-18T06:28:44;14.30;96.70
45115;DHT22;30877;43.706;10.780;2022-11-18T06:31:13;14.30;96.70
45115;DHT22;30877;43.706;10.780;2022-11-18T06:33:43;14.30;96.70
45115;DHT22;30877;43.706;10.780;2022-11-18T06:36:11;14.30;96.70
45115;DHT22;30877;43.706;10.780;2022-11-18T06:38:38;14.20;96.70
45115;DHT22;30877;43.706;10.780;2022-11-18T06:41:07;14.30;96.70
45115;DHT22;30877;43.706;10.780;2022-11-18T06:43:35;14.40;96.70
45115;DHT22;30877;43.706;10.780;2022-11-18T06:46:09;14.50;96.70
45115;DHT22;30877;43.706;10.780;2022-11-18T06:48:56;14.50;96.70
45115;DHT22;30877;43.706;10.780;2022-11-18T06:51:25;14.40;96.70
45115;DHT22;30877;43.706;10.780;2022-11-18T06:53:53;14.40;96.70
45115;DHT22;30877;43.706;10.780;2022-11-18T06:56:22;14.40;96.70
45115;DHT22;30877;43.706;10.780;2022-11-18T06:58:54;14.40;96.70
45115;DHT22;30877;43.706;10.780;2022-11-18T07:01:25;14.40;96.70
45115;DHT22;30877;43.706;10.780;2022-11-18T07:03:53;14.30;96.70
45115;DHT22;30877;43.706;10.780;2022-11-18T07:06:22;14.30;96.70
45115;DHT22;30877;43.706;10.780;2022-11-18T07:08:51;14.30;96.70
45115;DHT22;30877;43.706;10.780;2022-11-18T07:11:20;14.40;96.70
45115;DHT22;30877;43.706;10.780;2022-11-18T07:13:49;14.40;96.70
45115;DHT22;30877;43.706;10.780;2022-11-18T07:16:18;14.40;96.70
45115;DHT22;30877;43.706;10.780;2022-11-18T07:18:48;14.30;96.70
45115;DHT22;30877;43.706;10.780;2022-11-18T07:21:21;14.40;96.70
45115;DHT22;30877;43.706;10.780;2022-11-18T07:23:49;14.40;96.70
45115;DHT22;30877;43.706;10.780;2022-11-18T07:26:19;14.40;96.70
45115;DHT22;30877;43.706;10.780;2022-11-18T07:28:47;14.40;96.70
45115;DHT22;30877;43.706;10.780;2022-11-18T07:31:17;14.50;96.70
45115;DHT22;30877;43.706;10.780;2022-11-18T07:33:47;14.60;96.70
45115;DHT22;30877;43.706;10.780;2022-11-18T07:36:17;14.60;96.70
45115;DHT22;30877;43.706;10.780;2022-11-18T07:38:45;14.70;96.70
45115;DHT22;30877;43.706;10.780;2022-11-18T07:41:14;14.70;96.70
45115;DHT22;30877;43.706;10.780;2022-11-18T07:43:43;14.80;96.70
45115;DHT22;30877;43.706;10.780;2022-11-18T07:46:13;14.90;96.70
45115;DHT22;30877;43.706;10.780;2022-11-18T07:48:43;15.00;96.70
45115;DHT22;30877;43.706;10.780;2022-11-18T07:51:13;15.00;96.70
45115;DHT22;30877;43.706;10.780;2022-11-18T07:53:42;15.10;96.70
45115;DHT22;30877;43.706;10.780;2022-11-18T07:56:10;15.20;96.70
45115;DHT22;30877;43.706;10.780;2022-11-18T07:58:39;15.30;96.70
45115;DHT22;30877;43.706;10.780;2022-11-18T08:01:08;15.40;96.70
45115;DHT22;30877;43.706;10.780;2022-11-18T08:03:37;15.50;96.70
45115;DHT22;30877;43.706;10.780;2022-11-18T08:06:06;15.40;96.70
45115;DHT22;30877;43.706;10.780;2022-11-18T08:08:36;15.50;96.70
45115;DHT22;30877;43.706;10.780;2022-11-18T08:11:05;15.50;96.70
45115;DHT22;30877;43.706;10.780;2022-11-18T08:13:34;15.70;96.70
45115;DHT22;30877;43.706;10.780;2022-11-18T08:16:03;15.70;96.70
45115;DHT22;30877;43.706;10.780;2022-11-18T08:18:32;15.80;96.70
45115;DHT22;30877;43.706;10.780;2022-11-18T08:21:01;15.90;96.70
45115;DHT22;30877;43.706;10.780;2022-11-18T08:23:29;16.10;96.70
45115;DHT22;30877;43.706;10.780;2022-11-18T08:26:07;16.30;96.70
45115;DHT22;30877;43.706;10.780;2022-11-18T08:28:35;16.40;96.70
45115;DHT22;30877;43.706;10.780;2022-11-18T08:31:08;16.40;96.70
45115;DHT22;30877;43.706;10.780;2022-11-18T08:33:37;16.50;96.70
45115;DHT22;30877;43.706;10.780;2022-11-18T08:36:07;16.60;96.70
45115;DHT22;30877;43.706;10.780;2022-11-18T08:38:35;16.60;96.70
45115;DHT22;30877;43.706;10.780;2022-11-18T08:41:04;16.70;96.70
45115;DHT22;30877;43.706;10.780;2022-11-18T08:43:34;16.80;96.70
45115;DHT22;30877;43.706;10.780;2022-11-18T08:46:03;16.80;96.70
45115;DHT22;30877;43.706;10.780;2022-11-18T08:48:31;17.00;96.70
45115;DHT22;30877;43.706;10.780;2022-11-18T08:50:59;17.00;96.70
45115;DHT22;30877;43.706;10.780;2022-11-18T08:53:27;17.10;96.70
45115;DHT22;30877;43.706;10.780;2022-11-18T08:55:56;17.20;96.70
45115;DHT22;30877;43.706;10.780;2022-11-18T08:58:26;17.30;96.70
45115;DHT22;30877;43.706;10.780;2022-11-18T09:00:54;17.40;96.70
45115;DHT22;30877;43.706;10.780;2022-11-18T09:03:22;17.40;96.70
45115;DHT22;30877;43.706;10.780;2022-11-18T09:05:50;17.40;96.70
45115;DHT22;30877;43.706;10.780;2022-11-18T09:08:18;17.50;96.70
45115;DHT22;30877;43.706;10.780;2022-11-18T09:10:46;17.60;96.70
45115;DHT22;30877;43.706;10.780;2022-11-18T09:13:14;17.60;96.70
45115;DHT22;30877;43.706;10.780;2022-11-18T09:16:05;17.70;96.70
45115;DHT22;30877;43.706;10.780;2022-11-18T09:18:33;17.70;96.70
45115;DHT22;30877;43.706;10.780;2022-11-18T09:21:03;17.80;96.70
45115;DHT22;30877;43.706;10.780;2022-11-18T09:23:33;17.80;96.70
45115;DHT22;30877;43.706;10.780;2022-11-18T09:26:03;17.90;96.70
45115;DHT22;30877;43.706;10.780;2022-11-18T09:28:31;17.90;96.70
45115;DHT22;30877;43.706;10.780;2022-11-18T09:31:04;18.00;96.70
45115;DHT22;30877;43.706;10.780;2022-11-18T09:33:33;18.10;96.70
45115;DHT22;30877;43.706;10.780;2022-11-18T09:36:02;18.10;96.70
45115;DHT22;30877;43.706;10.780;2022-11-18T09:38:30;18.20;96.70
45115;DHT22;30877;43.706;10.780;2022-11-18T09:41:04;18.20;96.70
45115;DHT22;30877;43.706;10.780;2022-11-18T09:43:41;18.30;96.70
45115;DHT22;30877;43.706;10.780;2022-11-18T09:46:21;18.30;96.70
45115;DHT22;30877;43.706;10.780;2022-11-18T09:48:59;18.40;96.70
45115;DHT22;30877;43.706;10.780;2022-11-18T09:51:44;18.40;96.70
45115;DHT22;30877;43.706;10.780;2022-11-18T09:54:18;18.50;96.70
45115;DHT22;30877;43.706;10.780;2022-11-18T09:56:50;18.60;96.70
45115;DHT22;30877;43.706;10.780;2022-11-18T09:59:20;18.70;96.70
45115;DHT22;30877;43.706;10.780;2022-11-18T10:01:51;18.70;96.70
45115;DHT22;30877;43.706;10.780;2022-11-18T10:04:21;18.70;96.70
45115;DHT22;30877;43.706;10.780;2022-11-18T10:06:49;18.70;96.70
45115;DHT22;30877;43.706;10.780;2022-11-18T10:09:26;18.70;96.70
45115;DHT22;30877;43.706;10.780;2022-11-18T10:12:13;18.70;96.70
45115;DHT22;30877;43.706;10.780;2022-11-18T10:14:56;18.80;96.70
45115;DHT22;30877;43.706;10.780;2022-11-18T10:17:44;18.80;96.70
45115;DHT22;30877;43.706;10.780;2022-11-18T10:20:20;19.00;96.70
45115;DHT22;30877;43.706;10.780;2022-11-18T10:22:53;19.10;96.70
45115;DHT22;30877;43.706;10.780;2022-11-18T10:25:22;19.20;96.70
45115;DHT22;30877;43.706;10.780;2022-11-18T10:27:50;19.20;96.70
45115;DHT22;30877;43.706;10.780;2022-11-18T10:30:20;19.20;96.70
45115;DHT22;30877;43.706;10.780;2022-11-18T10:32:57;19.20;96.70
45115;DHT22;30877;43.706;10.780;2022-11-18T10:35:30;19.20;96.70
45115;DHT22;30877;43.706;10.780;2022-11-18T10:38:00;19.30;96.70
45115;DHT22;30877;43.706;10.780;2022-11-18T10:40:38;19.30;96.70
45115;DHT22;30877;43.706;10.780;2022-11-18T10:43:09;19.30;96.70
45115;DHT22;30877;43.706;10.780;2022-11-18T10:45:38;19.00;96.70
45115;DHT22;30877;43.706;10.780;2022-11-18T10:48:16;18.90;96.70
45115;DHT22;30877;43.706;10.780;2022-11-18T10:50:46;18.70;96.70
45115;DHT22;30877;43.706;10.780;2022-11-18T10:53:31;18.50;96.70
45115;DHT22;30877;43.706;10.780;2022-11-18T10:56:01;18.40;96.70
45115;DHT22;30877;43.706;10.780;2022-11-18T10:58:31;18.60;96.70
45115;DHT22;30877;43.706;10.780;2022-11-18T11:01:05;18.50;96.70
45115;DHT22;30877;43.706;10.780;2022-11-18T11:03:37;18.60;96.70
45115;DHT22;30877;43.706;10.780;2022-11-18T11:09:09;18.90;96.70
45115;DHT22;30877;43.706;10.780;2022-11-18T11:11:56;19.00;96.70
45115;DHT22;30877;43.706;10.780;2022-11-18T11:14:27;18.90;96.70
45115;DHT22;30877;43.706;10.780;2022-11-18T11:17:01;19.00;96.70
45115;DHT22;30877;43.706;10.780;2022-11-18T11:19:43;19.20;96.70
45115;DHT22;30877;43.706;10.780;2022-11-18T11:22:12;19.30;96.70
45115;DHT22;30877;43.706;10.780;2022-11-18T11:24:41;19.30;96.70
45115;DHT22;30877;43.706;10.780;2022-11-18T11:27:33;19.40;96.70
45115;DHT22;30877;43.706;10.780;2022-11-18T11:30:24;19.30;96.70
45115;DHT22;30877;43.706;10.780;2022-11-18T11:33:10;19.30;96.70
45115;DHT22;30877;43.706;10.780;2022-11-18T11:35:48;19.30;96.70
45115;DHT22;30877;43.706;10.780;2022-11-18T11:38:24;19.40;96.70
45115;DHT22;30877;43.706;10.780;2022-11-18T11:41:04;19.10;96.70
45115;DHT22;30877;43.706;10.780;2022-11-18T11:43:41;18.90;96.70
45115;DHT22;30877;43.706;10.780;2022-11-18T11:46:24;19.10;96.70
45115;DHT22;30877;43.706;10.780;2022-11-18T11:49:05;19.20;96.70
45115;DHT22;30877;43.706;10.780;2022-11-18T11:51:48;19.30;96.70
45115;DHT22;30877;43.706;10.780;2022-11-18T11:54:28;19.30;96.70
45115;DHT22;30877;43.706;10.780;2022-11-18T11:57:03;19.40;96.70
45115;DHT22;30877;43.706;10.780;2022-11-18T11:59:39;19.30;96.70
45115;DHT22;30877;43.706;10.780;2022-11-18T12:02:29;19.40;96.70
45115;DHT22;30877;43.706;10.780;2022-11-18T12:05:06;19.40;96.70
45115;DHT22;30877;43.706;10.780;2022-11-18T12:07:43;19.50;96.70
45115;DHT22;30877;43.706;10.780;2022-11-18T12:10:27;19.60;96.70
45115;DHT22;30877;43.706;10.780;2022-11-18T12:13:05;19.60;96.70
45115;DHT22;30877;43.706;10.780;2022-11-18T12:15:47;19.60;96.70
45115;DHT22;30877;43.706;10.780;2022-11-18T12:18:21;19.50;96.70
45115;DHT22;30877;43.706;10.780;2022-11-18T12:20:53;19.60;96.70
45115;DHT22;30877;43.706;10.780;2022-11-18T12:23:24;19.60;96.70
45115;DHT22;30877;43.706;10.780;2022-11-18T12:25:56;19.70;96.70
45115;DHT22;30877;43.706;10.780;2022-11-18T12:28:36;19.90;96.70
45115;DHT22;30877;43.706;10.780;2022-11-18T12:31:36;20.10;96.70
45115;DHT22;30877;43.706;10.780;2022-11-18T12:37:42;20.30;96.70
45115;DHT22;30877;43.706;10.780;2022-11-18T12:40:36;20.30;96.70
45115;DHT22;30877;43.706;10.780;2022-11-18T12:43:06;20.10;96.70
45115;DHT22;30877;43.706;10.780;2022-11-18T12:45:57;20.10;96.70
45115;DHT22;30877;43.706;10.780;2022-11-18T12:48:34;20.10;96.70
45115;DHT22;30877;43.706;10.780;2022-11-18T12:53:54;20.20;96.70
45115;DHT22;30877;43.706;10.780;2022-11-18T12:56:26;20.10;96.70
45115;DHT22;30877;43.706;10.780;2022-11-18T12:58:55;20.10;96.70
45115;DHT22;30877;43.706;10.780;2022-11-18T13:01:25;20.10;96.70
45115;DHT22;30877;43.706;10.780;2022-11-18T13:04:07;20.10;96.70
45115;DHT22;30877;43.706;10.780;2022-11-18T13:06:37;20.10;96.70
45115;DHT22;30877;43.706;10.780;2022-11-18T13:09:13;20.10;96.70
45115;DHT22;30877;43.706;10.780;2022-11-18T13:11:45;20.00;96.70
45115;DHT22;30877;43.706;10.780;2022-11-18T13:14:16;19.90;96.70
45115;DHT22;30877;43.706;10.780;2022-11-18T13:17:23;19.90;96.70
45115;DHT22;30877;43.706;10.780;2022-11-18T13:20:25;19.80;96.70
45115;DHT22;30877;43.706;10.780;2022-11-18T13:22:56;19.80;96.70
45115;DHT22;30877;43.706;10.780;2022-11-18T13:25:43;19.70;96.70
45115;DHT22;30877;43.706;10.780;2022-11-18T13:28:22;19.60;96.70
45115;DHT22;30877;43.706;10.780;2022-11-18T13:30:58;19.60;96.70
45115;DHT22;30877;43.706;10.780;2022-11-18T13:33:28;19.60;96.70
45115;DHT22;30877;43.706;10.780;2022-11-18T13:35:56;19.50;96.70
45115;DHT22;30877;43.706;10.780;2022-11-18T13:38:24;19.40;96.70
45115;DHT22;30877;43.706;10.780;2022-11-18T13:40:54;19.20;96.70
45115;DHT22;30877;43.706;10.780;2022-11-18T13:43:32;19.20;96.70
45115;DHT22;30877;43.706;10.780;2022-11-18T13:46:03;19.10;96.70
45115;DHT22;30877;43.706;10.780;2022-11-18T13:48:33;19.10;96.70
45115;DHT22;30877;43.706;10.780;2022-11-18T13:51:04;19.10;96.70
45115;DHT22;30877;43.706;10.780;2022-11-18T13:53:33;19.10;96.70
45115;DHT22;30877;43.706;10.780;2022-11-18T13:56:04;19.10;96.70
45115;DHT22;30877;43.706;10.780;2022-11-18T13:58:38;19.00;96.70
45115;DHT22;30877;43.706;10.780;2022-11-18T14:01:29;19.00;96.70
45115;DHT22;30877;43.706;10.780;2022-11-18T14:04:00;19.00;96.70
45115;DHT22;30877;43.706;10.780;2022-11-18T14:06:29;19.00;96.70
45115;DHT22;30877;43.706;10.780;2022-11-18T14:09:14;19.00;96.70
45115;DHT22;30877;43.706;10.780;2022-11-18T14:11:45;18.90;96.70
45115;DHT22;30877;43.706;10.780;2022-11-18T14:14:28;18.80;96.70
45115;DHT22;30877;43.706;10.780;2022-11-18T14:17:04;18.70;96.70
45115;DHT22;30877;43.706;10.780;2022-11-18T14:19:33;18.70;96.70
45115;DHT22;30877;43.706;10.780;2022-11-18T14:22:05;18.60;96.70
45115;DHT22;30877;43.706;10.780;2022-11-18T14:24:39;18.60;96.70
45115;DHT22;30877;43.706;10.780;2022-11-18T14:27:32;18.60;96.70
45115;DHT22;30877;43.706;10.780;2022-11-18T14:30:26;18.60;96.70
45115;DHT22;30877;43.706;10.780;2022-11-18T14:33:10;18.60;96.70
45115;DHT22;30877;43.706;10.780;2022-11-18T14:35:38;18.60;96.70
45115;DHT22;30877;43.706;10.780;2022-11-18T14:38:12;18.50;96.70
45115;DHT22;30877;43.706;10.780;2022-11-18T14:41:05;18.50;96.70
45115;DHT22;30877;43.706;10.780;2022-11-18T14:43:33;18.50;96.70
45115;DHT22;30877;43.706;10.780;2022-11-18T14:46:05;18.40;96.70
45115;DHT22;30877;43.706;10.780;2022-11-18T14:48:34;18.40;96.70
45115;DHT22;30877;43.706;10.780;2022-11-18T14:51:02;18.30;96.70
45115;DHT22;30877;43.706;10.780;2022-11-18T14:53:30;18.30;96.70
45115;DHT22;30877;43.706;10.780;2022-11-18T14:55:58;18.30;96.70
45115;DHT22;30877;43.706;10.780;2022-11-18T14:58:26;18.30;96.70
45115;DHT22;30877;43.706;10.780;2022-11-18T15:00:54;18.20;96.70
45115;DHT22;30877;43.706;10.780;2022-11-18T15:03:24;18.20;96.70
45115;DHT22;30877;43.706;10.780;2022-11-18T15:05:52;18.20;96.70
45115;DHT22;30877;43.706;10.780;2022-11-18T15:08:20;18.20;96.70
45115;DHT22;30877;43.706;10.780;2022-11-18T15:10:48;18.10;96.70
45115;DHT22;30877;43.706;10.780;2022-11-18T15:13:17;18.10;96.70
45115;DHT22;30877;43.706;10.780;2022-11-18T15:15:45;18.10;96.70
45115;DHT22;30877;43.706;10.780;2022-11-18T15:18:13;18.20;96.70
45115;DHT22;30877;43.706;10.780;2022-11-18T15:20:43;18.40;96.70
45115;DHT22;30877;43.706;10.780;2022-11-18T15:23:11;18.50;96.70
45115;DHT22;30877;43.706;10.780;2022-11-18T15:25:38;18.20;96.70
45115;DHT22;30877;43.706;10.780;2022-11-18T15:28:08;18.40;96.70
45115;DHT22;30877;43.706;10.780;2022-11-18T15:30:36;18.30;96.70
45115;DHT22;30877;43.706;10.780;2022-11-18T15:33:04;18.10;96.70
45115;DHT22;30877;43.706;10.780;2022-11-18T15:35:31;18.00;96.70
45115;DHT22;30877;43.706;10.780;2022-11-18T15:38:01;17.70;96.70
45115;DHT22;30877;43.706;10.780;2022-11-18T15:40:29;17.50;96.70
45115;DHT22;30877;43.706;10.780;2022-11-18T15:42:57;17.40;96.70
45115;DHT22;30877;43.706;10.780;2022-11-18T15:45:25;17.30;96.70
45115;DHT22;30877;43.706;10.780;2022-11-18T15:47:53;17.20;96.70
45115;DHT22;30877;43.706;10.780;2022-11-18T15:50:21;17.10;96.70
45115;DHT22;30877;43.706;10.780;2022-11-18T15:52:49;17.00;96.70
45115;DHT22;30877;43.706;10.780;2022-11-18T15:55:18;17.00;96.70
45115;DHT22;30877;43.706;10.780;2022-11-18T15:57:49;16.90;96.70